sensor_id;sensor_type;location;lat;lon;timestamp;P1;durP1;ratioP1;P2;durP2;ratioP2
76377;SDS011;65200;49.500;8.654;2023-03-03T00:00:21;19.67;;;14.40;;
76377;SDS011;65200;49.500;8.654;2023-03-03T00:02:48;21.20;;;13.35;;
76377;SDS011;65200;49.500;8.654;2023-03-03T00:05:14;21.77;;;14.43;;
76377;SDS011;65200;49.500;8.654;2023-03-03T00:07:43;26.48;;;15.38;;
76377;SDS011;65200;49.500;8.654;2023-03-03T00:10:11;22.65;;;14.00;;
76377;SDS011;65200;49.500;8.654;2023-03-03T00:12:43;20.15;;;12.57;;
76377;SDS011;65200;49.500;8.654;2023-03-03T00:15:13;22.60;;;13.80;;
76377;SDS011;65200;49.500;8.654;2023-03-03T00:17:40;24.65;;;13.85;;
76377;SDS011;65200;49.500;8.654;2023-03-03T00:20:21;22.30;;;13.98;;
76377;SDS011;65200;49.500;8.654;2023-03-03T00:23:06;13.93;;;10.75;;
76377;SDS011;65200;49.500;8.654;2023-03-03T00:25:42;17.30;;;11.75;;
76377;SDS011;65200;49.500;8.654;2023-03-03T00:28:15;18.38;;;14.60;;
76377;SDS011;65200;49.500;8.654;2023-03-03T00:30:47;21.70;;;14.85;;
76377;SDS011;65200;49.500;8.654;2023-03-03T00:33:18;24.02;;;14.18;;
76377;SDS011;65200;49.500;8.654;2023-03-03T00:35:52;13.82;;;11.90;;
76377;SDS011;65200;49.500;8.654;2023-03-03T00:38:20;20.27;;;13.48;;
76377;SDS011;65200;49.500;8.654;2023-03-03T00:40:47;17.90;;;13.00;;
76377;SDS011;65200;49.500;8.654;2023-03-03T00:43:17;20.02;;;13.07;;
76377;SDS011;65200;49.500;8.654;2023-03-03T00:45:45;23.58;;;14.68;;
76377;SDS011;65200;49.500;8.654;2023-03-03T00:48:20;18.85;;;11.82;;
76377;SDS011;65200;49.500;8.654;2023-03-03T00:50:50;22.20;;;12.75;;
76377;SDS011;65200;49.500;8.654;2023-03-03T00:53:18;19.88;;;12.13;;
76377;SDS011;65200;49.500;8.654;2023-03-03T00:58:14;22.63;;;11.07;;
76377;SDS011;65200;49.500;8.654;2023-03-03T01:00:42;17.83;;;10.50;;
76377;SDS011;65200;49.500;8.654;2023-03-03T01:03:15;20.17;;;12.55;;
76377;SDS011;65200;49.500;8.654;2023-03-03T01:05:43;15.32;;;12.23;;
76377;SDS011;65200;49.500;8.654;2023-03-03T01:08:10;20.35;;;12.23;;
76377;SDS011;65200;49.500;8.654;2023-03-03T01:10:38;23.25;;;12.85;;
76377;SDS011;65200;49.500;8.654;2023-03-03T01:13:08;22.65;;;13.02;;
76377;SDS011;65200;49.500;8.654;2023-03-03T01:15:36;35.03;;;20.13;;
76377;SDS011;65200;49.500;8.654;2023-03-03T01:18:04;29.33;;;17.05;;
76377;SDS011;65200;49.500;8.654;2023-03-03T01:20:31;32.03;;;18.42;;
76377;SDS011;65200;49.500;8.654;2023-03-03T01:22:57;30.08;;;17.75;;
76377;SDS011;65200;49.500;8.654;2023-03-03T01:25:24;27.88;;;16.70;;
76377;SDS011;65200;49.500;8.654;2023-03-03T01:27:50;17.77;;;12.32;;
76377;SDS011;65200;49.500;8.654;2023-03-03T01:30:18;22.50;;;13.75;;
76377;SDS011;65200;49.500;8.654;2023-03-03T01:32:44;17.80;;;11.82;;
76377;SDS011;65200;49.500;8.654;2023-03-03T01:35:11;22.05;;;13.27;;
76377;SDS011;65200;49.500;8.654;2023-03-03T01:37:37;22.85;;;13.10;;
76377;SDS011;65200;49.500;8.654;2023-03-03T01:40:04;20.15;;;13.68;;
76377;SDS011;65200;49.500;8.654;2023-03-03T01:42:33;22.67;;;14.10;;
76377;SDS011;65200;49.500;8.654;2023-03-03T01:45:13;20.92;;;14.13;;
76377;SDS011;65200;49.500;8.654;2023-03-03T01:47:47;16.90;;;11.90;;
76377;SDS011;65200;49.500;8.654;2023-03-03T01:50:20;19.77;;;12.55;;
76377;SDS011;65200;49.500;8.654;2023-03-03T01:52:54;23.92;;;12.80;;
76377;SDS011;65200;49.500;8.654;2023-03-03T01:55:24;19.67;;;12.23;;
76377;SDS011;65200;49.500;8.654;2023-03-03T01:57:57;21.52;;;13.93;;
76377;SDS011;65200;49.500;8.654;2023-03-03T02:00:29;18.77;;;12.38;;
76377;SDS011;65200;49.500;8.654;2023-03-03T02:02:57;19.40;;;13.43;;
76377;SDS011;65200;49.500;8.654;2023-03-03T02:05:24;18.30;;;12.85;;
76377;SDS011;65200;49.500;8.654;2023-03-03T02:07:51;27.75;;;14.30;;
76377;SDS011;65200;49.500;8.654;2023-03-03T02:10:18;21.33;;;12.40;;
76377;SDS011;65200;49.500;8.654;2023-03-03T02:12:47;26.10;;;16.33;;
76377;SDS011;65200;49.500;8.654;2023-03-03T02:15:16;25.10;;;16.13;;
76377;SDS011;65200;49.500;8.654;2023-03-03T02:17:46;26.35;;;15.45;;
76377;SDS011;65200;49.500;8.654;2023-03-03T02:20:15;21.52;;;13.43;;
76377;SDS011;65200;49.500;8.654;2023-03-03T02:22:54;23.15;;;13.80;;
76377;SDS011;65200;49.500;8.654;2023-03-03T02:25:27;23.42;;;14.23;;
76377;SDS011;65200;49.500;8.654;2023-03-03T02:28:00;22.75;;;14.73;;
76377;SDS011;65200;49.500;8.654;2023-03-03T02:30:27;24.52;;;14.25;;
76377;SDS011;65200;49.500;8.654;2023-03-03T02:32:54;24.42;;;15.07;;
76377;SDS011;65200;49.500;8.654;2023-03-03T02:35:24;22.13;;;15.82;;
76377;SDS011;65200;49.500;8.654;2023-03-03T02:37:53;26.58;;;15.23;;
76377;SDS011;65200;49.500;8.654;2023-03-03T02:40:24;23.83;;;16.02;;
76377;SDS011;65200;49.500;8.654;2023-03-03T02:42:56;25.85;;;14.45;;
76377;SDS011;65200;49.500;8.654;2023-03-03T02:45:26;17.80;;;12.98;;
76377;SDS011;65200;49.500;8.654;2023-03-03T02:47:53;22.70;;;15.00;;
76377;SDS011;65200;49.500;8.654;2023-03-03T02:50:19;26.70;;;14.00;;
76377;SDS011;65200;49.500;8.654;2023-03-03T02:52:45;23.23;;;14.52;;
76377;SDS011;65200;49.500;8.654;2023-03-03T02:55:12;25.20;;;15.38;;
76377;SDS011;65200;49.500;8.654;2023-03-03T02:57:38;20.67;;;13.50;;
76377;SDS011;65200;49.500;8.654;2023-03-03T03:00:05;24.90;;;13.02;;
76377;SDS011;65200;49.500;8.654;2023-03-03T03:02:34;24.95;;;14.20;;
76377;SDS011;65200;49.500;8.654;2023-03-03T03:05:00;20.80;;;13.55;;
76377;SDS011;65200;49.500;8.654;2023-03-03T03:07:26;21.02;;;13.13;;
76377;SDS011;65200;49.500;8.654;2023-03-03T03:09:53;24.25;;;12.52;;
76377;SDS011;65200;49.500;8.654;2023-03-03T03:12:20;20.80;;;12.15;;
76377;SDS011;65200;49.500;8.654;2023-03-03T03:14:46;23.27;;;13.75;;
76377;SDS011;65200;49.500;8.654;2023-03-03T03:17:13;20.55;;;13.25;;
76377;SDS011;65200;49.500;8.654;2023-03-03T03:19:40;24.70;;;14.10;;
76377;SDS011;65200;49.500;8.654;2023-03-03T03:22:07;20.92;;;15.02;;
76377;SDS011;65200;49.500;8.654;2023-03-03T03:24:33;23.25;;;13.23;;
76377;SDS011;65200;49.500;8.654;2023-03-03T03:27:00;22.65;;;14.48;;
76377;SDS011;65200;49.500;8.654;2023-03-03T03:29:26;23.40;;;13.80;;
76377;SDS011;65200;49.500;8.654;2023-03-03T03:31:52;20.42;;;13.75;;
76377;SDS011;65200;49.500;8.654;2023-03-03T03:34:19;23.75;;;15.18;;
76377;SDS011;65200;49.500;8.654;2023-03-03T03:36:46;20.75;;;14.73;;
76377;SDS011;65200;49.500;8.654;2023-03-03T03:39:13;21.67;;;13.63;;
76377;SDS011;65200;49.500;8.654;2023-03-03T03:41:39;22.63;;;15.77;;
76377;SDS011;65200;49.500;8.654;2023-03-03T03:44:06;20.08;;;14.07;;
76377;SDS011;65200;49.500;8.654;2023-03-03T03:46:32;24.90;;;16.05;;
76377;SDS011;65200;49.500;8.654;2023-03-03T03:48:59;27.55;;;15.98;;
76377;SDS011;65200;49.500;8.654;2023-03-03T03:51:25;24.08;;;15.93;;
76377;SDS011;65200;49.500;8.654;2023-03-03T03:53:53;27.80;;;16.60;;
76377;SDS011;65200;49.500;8.654;2023-03-03T03:56:19;25.77;;;15.50;;
76377;SDS011;65200;49.500;8.654;2023-03-03T03:58:46;24.90;;;15.80;;
76377;SDS011;65200;49.500;8.654;2023-03-03T04:01:12;21.95;;;12.77;;
76377;SDS011;65200;49.500;8.654;2023-03-03T04:03:38;24.70;;;14.75;;
76377;SDS011;65200;49.500;8.654;2023-03-03T04:06:05;25.05;;;16.13;;
76377;SDS011;65200;49.500;8.654;2023-03-03T04:08:31;30.08;;;16.25;;
76377;SDS011;65200;49.500;8.654;2023-03-03T04:10:59;27.25;;;16.00;;
76377;SDS011;65200;49.500;8.654;2023-03-03T04:13:25;25.45;;;16.33;;
76377;SDS011;65200;49.500;8.654;2023-03-03T04:15:55;25.65;;;15.90;;
76377;SDS011;65200;49.500;8.654;2023-03-03T04:18:22;24.65;;;16.08;;
76377;SDS011;65200;49.500;8.654;2023-03-03T04:20:48;20.98;;;14.82;;
76377;SDS011;65200;49.500;8.654;2023-03-03T04:23:16;25.35;;;15.52;;
76377;SDS011;65200;49.500;8.654;2023-03-03T04:25:44;21.95;;;15.23;;
76377;SDS011;65200;49.500;8.654;2023-03-03T04:28:12;26.50;;;15.10;;
76377;SDS011;65200;49.500;8.654;2023-03-03T04:30:39;24.85;;;16.30;;
76377;SDS011;65200;49.500;8.654;2023-03-03T04:33:05;27.23;;;15.38;;
76377;SDS011;65200;49.500;8.654;2023-03-03T04:35:31;29.45;;;16.10;;
76377;SDS011;65200;49.500;8.654;2023-03-03T04:37:58;25.70;;;15.75;;
76377;SDS011;65200;49.500;8.654;2023-03-03T04:40:25;26.75;;;17.00;;
76377;SDS011;65200;49.500;8.654;2023-03-03T04:42:52;27.70;;;15.43;;
76377;SDS011;65200;49.500;8.654;2023-03-03T04:45:20;21.90;;;13.40;;
76377;SDS011;65200;49.500;8.654;2023-03-03T04:47:46;25.30;;;12.88;;
76377;SDS011;65200;49.500;8.654;2023-03-03T04:50:13;19.75;;;13.30;;
76377;SDS011;65200;49.500;8.654;2023-03-03T04:52:39;25.35;;;15.00;;
76377;SDS011;65200;49.500;8.654;2023-03-03T04:55:06;25.70;;;13.80;;
76377;SDS011;65200;49.500;8.654;2023-03-03T04:57:33;28.58;;;15.38;;
76377;SDS011;65200;49.500;8.654;2023-03-03T05:00:00;26.13;;;14.95;;
76377;SDS011;65200;49.500;8.654;2023-03-03T05:02:28;19.77;;;13.98;;
76377;SDS011;65200;49.500;8.654;2023-03-03T05:04:55;25.75;;;15.15;;
76377;SDS011;65200;49.500;8.654;2023-03-03T05:07:21;24.30;;;13.98;;
76377;SDS011;65200;49.500;8.654;2023-03-03T05:09:48;22.58;;;13.95;;
76377;SDS011;65200;49.500;8.654;2023-03-03T05:12:15;23.05;;;14.10;;
76377;SDS011;65200;49.500;8.654;2023-03-03T05:14:42;23.33;;;16.15;;
76377;SDS011;65200;49.500;8.654;2023-03-03T05:17:08;21.85;;;14.63;;
76377;SDS011;65200;49.500;8.654;2023-03-03T05:19:36;22.23;;;14.85;;
76377;SDS011;65200;49.500;8.654;2023-03-03T05:22:02;22.58;;;13.15;;
76377;SDS011;65200;49.500;8.654;2023-03-03T05:24:29;25.13;;;16.08;;
76377;SDS011;65200;49.500;8.654;2023-03-03T05:26:55;22.00;;;15.30;;
76377;SDS011;65200;49.500;8.654;2023-03-03T05:29:22;21.23;;;13.80;;
76377;SDS011;65200;49.500;8.654;2023-03-03T05:31:48;22.60;;;14.50;;
76377;SDS011;65200;49.500;8.654;2023-03-03T05:34:15;22.65;;;15.90;;
76377;SDS011;65200;49.500;8.654;2023-03-03T05:36:43;20.58;;;13.20;;
76377;SDS011;65200;49.500;8.654;2023-03-03T05:39:09;23.48;;;16.65;;
76377;SDS011;65200;49.500;8.654;2023-03-03T05:41:35;22.83;;;15.75;;
76377;SDS011;65200;49.500;8.654;2023-03-03T05:44:02;25.20;;;15.48;;
76377;SDS011;65200;49.500;8.654;2023-03-03T05:46:29;23.67;;;15.90;;
76377;SDS011;65200;49.500;8.654;2023-03-03T05:48:55;21.23;;;13.50;;
76377;SDS011;65200;49.500;8.654;2023-03-03T05:51:22;20.80;;;13.73;;
76377;SDS011;65200;49.500;8.654;2023-03-03T05:53:49;25.52;;;15.55;;
76377;SDS011;65200;49.500;8.654;2023-03-03T05:56:16;17.58;;;14.73;;
76377;SDS011;65200;49.500;8.654;2023-03-03T05:58:43;22.63;;;15.60;;
76377;SDS011;65200;49.500;8.654;2023-03-03T06:01:09;18.50;;;13.10;;
76377;SDS011;65200;49.500;8.654;2023-03-03T06:03:35;27.48;;;16.80;;
76377;SDS011;65200;49.500;8.654;2023-03-03T06:06:02;31.92;;;18.05;;
76377;SDS011;65200;49.500;8.654;2023-03-03T06:08:28;30.33;;;17.02;;
76377;SDS011;65200;49.500;8.654;2023-03-03T06:10:58;30.70;;;19.20;;
76377;SDS011;65200;49.500;8.654;2023-03-03T06:13:24;31.60;;;18.40;;
76377;SDS011;65200;49.500;8.654;2023-03-03T06:15:51;35.35;;;21.23;;
76377;SDS011;65200;49.500;8.654;2023-03-03T06:18:17;44.35;;;20.60;;
76377;SDS011;65200;49.500;8.654;2023-03-03T06:20:44;53.35;;;27.65;;
76377;SDS011;65200;49.500;8.654;2023-03-03T06:23:10;38.60;;;21.92;;
76377;SDS011;65200;49.500;8.654;2023-03-03T06:25:37;44.70;;;24.80;;
76377;SDS011;65200;49.500;8.654;2023-03-03T06:28:05;44.17;;;23.98;;
76377;SDS011;65200;49.500;8.654;2023-03-03T06:30:31;37.40;;;22.55;;
76377;SDS011;65200;49.500;8.654;2023-03-03T06:32:58;38.42;;;23.33;;
76377;SDS011;65200;49.500;8.654;2023-03-03T06:35:24;53.38;;;29.65;;
76377;SDS011;65200;49.500;8.654;2023-03-03T06:37:51;48.95;;;23.38;;
76377;SDS011;65200;49.500;8.654;2023-03-03T06:40:17;40.03;;;22.65;;
76377;SDS011;65200;49.500;8.654;2023-03-03T06:42:44;30.85;;;18.58;;
76377;SDS011;65200;49.500;8.654;2023-03-03T06:45:12;26.00;;;16.83;;
76377;SDS011;65200;49.500;8.654;2023-03-03T06:47:39;33.47;;;17.38;;
76377;SDS011;65200;49.500;8.654;2023-03-03T06:50:06;36.38;;;20.20;;
76377;SDS011;65200;49.500;8.654;2023-03-03T06:52:32;31.63;;;18.23;;
76377;SDS011;65200;49.500;8.654;2023-03-03T06:54:59;29.20;;;17.05;;
76377;SDS011;65200;49.500;8.654;2023-03-03T06:57:35;30.70;;;18.83;;
76377;SDS011;65200;49.500;8.654;2023-03-03T07:00:09;27.13;;;17.05;;
76377;SDS011;65200;49.500;8.654;2023-03-03T07:05:12;34.20;;;20.23;;
76377;SDS011;65200;49.500;8.654;2023-03-03T07:07:40;46.28;;;27.95;;
76377;SDS011;65200;49.500;8.654;2023-03-03T07:10:12;55.33;;;26.25;;
76377;SDS011;65200;49.500;8.654;2023-03-03T07:12:45;48.90;;;27.90;;
76377;SDS011;65200;49.500;8.654;2023-03-03T07:15:12;50.25;;;24.92;;
76377;SDS011;65200;49.500;8.654;2023-03-03T07:17:43;38.20;;;22.30;;
76377;SDS011;65200;49.500;8.654;2023-03-03T07:20:14;37.05;;;21.90;;
76377;SDS011;65200;49.500;8.654;2023-03-03T07:22:44;40.70;;;24.77;;
76377;SDS011;65200;49.500;8.654;2023-03-03T07:25:17;47.95;;;25.52;;
76377;SDS011;65200;49.500;8.654;2023-03-03T07:27:46;41.15;;;25.40;;
76377;SDS011;65200;49.500;8.654;2023-03-03T07:30:19;43.92;;;21.75;;
76377;SDS011;65200;49.500;8.654;2023-03-03T07:32:49;40.42;;;22.52;;
76377;SDS011;65200;49.500;8.654;2023-03-03T07:35:24;45.85;;;22.17;;
76377;SDS011;65200;49.500;8.654;2023-03-03T07:38:00;49.00;;;24.15;;
76377;SDS011;65200;49.500;8.654;2023-03-03T07:40:29;47.53;;;25.38;;
76377;SDS011;65200;49.500;8.654;2023-03-03T07:43:00;48.35;;;26.00;;
76377;SDS011;65200;49.500;8.654;2023-03-03T07:45:40;44.13;;;26.15;;
76377;SDS011;65200;49.500;8.654;2023-03-03T07:48:12;41.50;;;25.40;;
76377;SDS011;65200;49.500;8.654;2023-03-03T07:50:44;40.15;;;22.40;;
76377;SDS011;65200;49.500;8.654;2023-03-03T07:53:12;36.25;;;22.27;;
76377;SDS011;65200;49.500;8.654;2023-03-03T07:55:46;31.10;;;18.38;;
76377;SDS011;65200;49.500;8.654;2023-03-03T07:58:15;40.00;;;19.08;;
76377;SDS011;65200;49.500;8.654;2023-03-03T08:03:54;32.72;;;15.88;;
76377;SDS011;65200;49.500;8.654;2023-03-03T08:06:30;31.15;;;18.63;;
76377;SDS011;65200;49.500;8.654;2023-03-03T08:09:03;27.25;;;15.63;;
76377;SDS011;65200;49.500;8.654;2023-03-03T08:11:53;29.30;;;18.50;;
76377;SDS011;65200;49.500;8.654;2023-03-03T08:14:24;30.65;;;18.83;;
76377;SDS011;65200;49.500;8.654;2023-03-03T08:16:52;25.08;;;17.02;;
76377;SDS011;65200;49.500;8.654;2023-03-03T08:19:20;32.15;;;16.73;;
76377;SDS011;65200;49.500;8.654;2023-03-03T08:21:47;25.92;;;16.98;;
76377;SDS011;65200;49.500;8.654;2023-03-03T08:24:13;24.10;;;15.40;;
76377;SDS011;65200;49.500;8.654;2023-03-03T08:26:41;23.80;;;15.15;;
76377;SDS011;65200;49.500;8.654;2023-03-03T08:29:08;25.27;;;15.65;;
76377;SDS011;65200;49.500;8.654;2023-03-03T08:31:35;27.95;;;15.23;;
76377;SDS011;65200;49.500;8.654;2023-03-03T08:34:02;26.88;;;16.98;;
76377;SDS011;65200;49.500;8.654;2023-03-03T08:36:30;26.00;;;15.52;;
76377;SDS011;65200;49.500;8.654;2023-03-03T08:38:56;36.88;;;18.00;;
76377;SDS011;65200;49.500;8.654;2023-03-03T08:41:23;27.85;;;17.67;;
76377;SDS011;65200;49.500;8.654;2023-03-03T08:43:49;23.00;;;16.60;;
76377;SDS011;65200;49.500;8.654;2023-03-03T08:46:16;27.27;;;17.23;;
76377;SDS011;65200;49.500;8.654;2023-03-03T08:48:43;23.77;;;15.00;;
76377;SDS011;65200;49.500;8.654;2023-03-03T08:51:09;28.92;;;18.98;;
76377;SDS011;65200;49.500;8.654;2023-03-03T08:53:37;24.75;;;17.75;;
76377;SDS011;65200;49.500;8.654;2023-03-03T08:56:04;23.17;;;16.15;;
76377;SDS011;65200;49.500;8.654;2023-03-03T08:58:31;23.83;;;18.63;;
76377;SDS011;65200;49.500;8.654;2023-03-03T09:00:57;27.42;;;18.25;;
76377;SDS011;65200;49.500;8.654;2023-03-03T09:03:24;29.70;;;19.15;;
76377;SDS011;65200;49.500;8.654;2023-03-03T09:05:51;27.63;;;19.55;;
76377;SDS011;65200;49.500;8.654;2023-03-03T09:08:18;28.48;;;19.05;;
76377;SDS011;65200;49.500;8.654;2023-03-03T09:10:45;30.00;;;20.80;;
76377;SDS011;65200;49.500;8.654;2023-03-03T09:13:13;21.80;;;14.60;;
76377;SDS011;65200;49.500;8.654;2023-03-03T09:15:43;29.25;;;20.52;;
76377;SDS011;65200;49.500;8.654;2023-03-03T09:18:12;33.00;;;21.08;;
76377;SDS011;65200;49.500;8.654;2023-03-03T09:20:41;29.17;;;18.92;;
76377;SDS011;65200;49.500;8.654;2023-03-03T09:28:52;32.90;;;21.63;;
76377;SDS011;65200;49.500;8.654;2023-03-03T09:31:21;33.53;;;19.48;;
76377;SDS011;65200;49.500;8.654;2023-03-03T09:33:50;33.05;;;21.88;;
76377;SDS011;65200;49.500;8.654;2023-03-03T09:36:22;36.17;;;23.33;;
76377;SDS011;65200;49.500;8.654;2023-03-03T09:38:50;33.15;;;22.25;;
76377;SDS011;65200;49.500;8.654;2023-03-03T09:47:26;28.10;;;18.58;;
76377;SDS011;65200;49.500;8.654;2023-03-03T09:50:09;31.88;;;20.35;;
76377;SDS011;65200;49.500;8.654;2023-03-03T09:52:45;34.13;;;21.13;;
76377;SDS011;65200;49.500;8.654;2023-03-03T09:55:25;31.15;;;20.13;;
76377;SDS011;65200;49.500;8.654;2023-03-03T09:58:08;36.28;;;21.90;;
76377;SDS011;65200;49.500;8.654;2023-03-03T10:00:48;30.50;;;20.88;;
76377;SDS011;65200;49.500;8.654;2023-03-03T10:03:35;34.35;;;20.88;;
76377;SDS011;65200;49.500;8.654;2023-03-03T10:06:14;34.70;;;22.65;;
76377;SDS011;65200;49.500;8.654;2023-03-03T10:08:53;32.95;;;21.50;;
76377;SDS011;65200;49.500;8.654;2023-03-03T10:11:31;30.20;;;22.10;;
76377;SDS011;65200;49.500;8.654;2023-03-03T10:14:09;32.97;;;20.80;;
76377;SDS011;65200;49.500;8.654;2023-03-03T10:16:53;30.42;;;19.23;;
76377;SDS011;65200;49.500;8.654;2023-03-03T10:19:35;29.95;;;20.10;;
76377;SDS011;65200;49.500;8.654;2023-03-03T10:22:06;35.22;;;22.17;;
76377;SDS011;65200;49.500;8.654;2023-03-03T10:24:45;33.40;;;21.27;;
76377;SDS011;65200;49.500;8.654;2023-03-03T10:27:23;33.85;;;22.98;;
76377;SDS011;65200;49.500;8.654;2023-03-03T10:30:06;28.52;;;18.80;;
76377;SDS011;65200;49.500;8.654;2023-03-03T10:32:41;34.63;;;21.30;;
76377;SDS011;65200;49.500;8.654;2023-03-03T10:35:19;33.42;;;21.50;;
76377;SDS011;65200;49.500;8.654;2023-03-03T10:40:54;35.47;;;23.60;;
76377;SDS011;65200;49.500;8.654;2023-03-03T10:43:32;35.13;;;22.20;;
76377;SDS011;65200;49.500;8.654;2023-03-03T10:46:29;38.28;;;21.65;;
76377;SDS011;65200;49.500;8.654;2023-03-03T10:49:25;37.70;;;23.35;;
76377;SDS011;65200;49.500;8.654;2023-03-03T10:52:11;38.58;;;22.73;;
76377;SDS011;65200;49.500;8.654;2023-03-03T10:54:48;41.80;;;25.50;;
76377;SDS011;65200;49.500;8.654;2023-03-03T10:57:29;35.85;;;22.08;;
76377;SDS011;65200;49.500;8.654;2023-03-03T11:00:07;41.97;;;25.48;;
76377;SDS011;65200;49.500;8.654;2023-03-03T11:02:47;34.97;;;19.75;;
76377;SDS011;65200;49.500;8.654;2023-03-03T11:05:32;42.38;;;23.67;;
76377;SDS011;65200;49.500;8.654;2023-03-03T11:08:06;38.30;;;22.67;;
76377;SDS011;65200;49.500;8.654;2023-03-03T11:10:46;40.83;;;24.50;;
76377;SDS011;65200;49.500;8.654;2023-03-03T11:13:19;35.50;;;20.85;;
76377;SDS011;65200;49.500;8.654;2023-03-03T11:15:58;38.00;;;25.00;;
76377;SDS011;65200;49.500;8.654;2023-03-03T11:18:51;39.60;;;24.85;;
76377;SDS011;65200;49.500;8.654;2023-03-03T11:21:31;36.35;;;22.35;;
76377;SDS011;65200;49.500;8.654;2023-03-03T11:24:18;34.13;;;21.77;;
76377;SDS011;65200;49.500;8.654;2023-03-03T11:27:05;33.50;;;19.98;;
76377;SDS011;65200;49.500;8.654;2023-03-03T11:29:46;35.10;;;21.38;;
76377;SDS011;65200;49.500;8.654;2023-03-03T11:32:24;32.15;;;21.13;;
76377;SDS011;65200;49.500;8.654;2023-03-03T11:35:01;37.13;;;22.98;;
76377;SDS011;65200;49.500;8.654;2023-03-03T11:37:42;30.85;;;20.20;;
76377;SDS011;65200;49.500;8.654;2023-03-03T11:40:16;31.75;;;21.58;;
76377;SDS011;65200;49.500;8.654;2023-03-03T11:42:51;41.15;;;25.30;;
76377;SDS011;65200;49.500;8.654;2023-03-03T11:45:28;35.90;;;22.38;;
76377;SDS011;65200;49.500;8.654;2023-03-03T11:48:00;38.53;;;21.27;;
76377;SDS011;65200;49.500;8.654;2023-03-03T11:50:39;40.58;;;23.05;;
76377;SDS011;65200;49.500;8.654;2023-03-03T11:53:16;43.28;;;26.55;;
76377;SDS011;65200;49.500;8.654;2023-03-03T11:55:53;34.70;;;22.00;;
76377;SDS011;65200;49.500;8.654;2023-03-03T11:58:26;35.88;;;20.80;;
76377;SDS011;65200;49.500;8.654;2023-03-03T12:00:57;35.40;;;23.45;;
76377;SDS011;65200;49.500;8.654;2023-03-03T12:03:33;40.35;;;23.08;;
76377;SDS011;65200;49.500;8.654;2023-03-03T12:06:10;42.17;;;24.73;;
76377;SDS011;65200;49.500;8.654;2023-03-03T12:08:54;26.98;;;18.95;;
76377;SDS011;65200;49.500;8.654;2023-03-03T12:11:36;34.63;;;21.92;;
76377;SDS011;65200;49.500;8.654;2023-03-03T12:14:13;34.83;;;22.20;;
76377;SDS011;65200;49.500;8.654;2023-03-03T12:16:52;33.90;;;20.23;;
76377;SDS011;65200;49.500;8.654;2023-03-03T12:19:27;37.28;;;22.48;;
76377;SDS011;65200;49.500;8.654;2023-03-03T12:27:57;30.33;;;20.60;;
76377;SDS011;65200;49.500;8.654;2023-03-03T12:30:36;31.23;;;21.15;;
76377;SDS011;65200;49.500;8.654;2023-03-03T12:33:17;32.22;;;20.33;;
76377;SDS011;65200;49.500;8.654;2023-03-03T12:35:54;33.63;;;21.83;;
76377;SDS011;65200;49.500;8.654;2023-03-03T12:38:36;36.65;;;22.48;;
76377;SDS011;65200;49.500;8.654;2023-03-03T12:41:11;37.22;;;21.42;;
76377;SDS011;65200;49.500;8.654;2023-03-03T12:43:48;35.28;;;23.25;;
76377;SDS011;65200;49.500;8.654;2023-03-03T12:46:21;36.25;;;23.33;;
76377;SDS011;65200;49.500;8.654;2023-03-03T12:48:53;35.55;;;20.42;;
76377;SDS011;65200;49.500;8.654;2023-03-03T12:51:24;33.42;;;21.67;;
76377;SDS011;65200;49.500;8.654;2023-03-03T12:54:09;37.30;;;22.23;;
76377;SDS011;65200;49.500;8.654;2023-03-03T12:56:44;35.80;;;22.67;;
76377;SDS011;65200;49.500;8.654;2023-03-03T12:59:19;34.28;;;22.83;;
76377;SDS011;65200;49.500;8.654;2023-03-03T13:04:59;36.55;;;21.98;;
76377;SDS011;65200;49.500;8.654;2023-03-03T13:07:32;39.72;;;22.38;;
76377;SDS011;65200;49.500;8.654;2023-03-03T13:10:10;36.47;;;21.23;;
76377;SDS011;65200;49.500;8.654;2023-03-03T13:12:43;31.42;;;20.33;;
76377;SDS011;65200;49.500;8.654;2023-03-03T13:15:15;35.85;;;23.08;;
76377;SDS011;65200;49.500;8.654;2023-03-03T13:17:49;27.30;;;19.02;;
76377;SDS011;65200;49.500;8.654;2023-03-03T13:20:24;29.08;;;20.45;;
76377;SDS011;65200;49.500;8.654;2023-03-03T13:23:03;39.38;;;22.17;;
76377;SDS011;65200;49.500;8.654;2023-03-03T13:25:48;33.90;;;20.67;;
76377;SDS011;65200;49.500;8.654;2023-03-03T13:28:21;31.13;;;18.38;;
76377;SDS011;65200;49.500;8.654;2023-03-03T13:30:57;34.33;;;21.75;;
76377;SDS011;65200;49.500;8.654;2023-03-03T13:33:29;35.47;;;22.38;;
76377;SDS011;65200;49.500;8.654;2023-03-03T13:36:00;35.45;;;22.40;;
76377;SDS011;65200;49.500;8.654;2023-03-03T13:38:29;36.70;;;21.80;;
76377;SDS011;65200;49.500;8.654;2023-03-03T13:41:10;34.20;;;22.83;;
76377;SDS011;65200;49.500;8.654;2023-03-03T13:43:47;31.33;;;20.52;;
76377;SDS011;65200;49.500;8.654;2023-03-03T13:46:17;32.05;;;20.45;;
76377;SDS011;65200;49.500;8.654;2023-03-03T13:49:00;31.55;;;17.95;;
76377;SDS011;65200;49.500;8.654;2023-03-03T13:51:39;34.00;;;20.20;;
76377;SDS011;65200;49.500;8.654;2023-03-03T13:54:13;34.20;;;20.67;;
76377;SDS011;65200;49.500;8.654;2023-03-03T13:56:58;30.95;;;20.13;;
76377;SDS011;65200;49.500;8.654;2023-03-03T13:59:39;34.55;;;20.48;;
76377;SDS011;65200;49.500;8.654;2023-03-03T14:02:19;27.80;;;18.52;;
76377;SDS011;65200;49.500;8.654;2023-03-03T14:05:11;33.08;;;18.20;;
76377;SDS011;65200;49.500;8.654;2023-03-03T14:07:41;32.60;;;21.23;;
76377;SDS011;65200;49.500;8.654;2023-03-03T14:10:17;30.80;;;17.10;;
76377;SDS011;65200;49.500;8.654;2023-03-03T14:12:53;27.70;;;16.95;;
76377;SDS011;65200;49.500;8.654;2023-03-03T14:15:28;36.88;;;19.90;;
76377;SDS011;65200;49.500;8.654;2023-03-03T14:18:02;32.67;;;19.13;;
76377;SDS011;65200;49.500;8.654;2023-03-03T14:20:41;27.70;;;16.38;;
76377;SDS011;65200;49.500;8.654;2023-03-03T14:23:13;25.63;;;15.57;;
76377;SDS011;65200;49.500;8.654;2023-03-03T14:25:57;27.50;;;18.38;;
76377;SDS011;65200;49.500;8.654;2023-03-03T14:28:37;29.30;;;17.42;;
76377;SDS011;65200;49.500;8.654;2023-03-03T14:31:13;30.33;;;17.15;;
76377;SDS011;65200;49.500;8.654;2023-03-03T14:33:44;27.30;;;16.88;;
76377;SDS011;65200;49.500;8.654;2023-03-03T14:36:23;24.83;;;14.88;;
76377;SDS011;65200;49.500;8.654;2023-03-03T14:38:52;25.88;;;16.02;;
76377;SDS011;65200;49.500;8.654;2023-03-03T14:41:20;30.40;;;18.75;;
76377;SDS011;65200;49.500;8.654;2023-03-03T14:44:01;28.75;;;17.08;;
76377;SDS011;65200;49.500;8.654;2023-03-03T14:46:59;26.70;;;16.83;;
76377;SDS011;65200;49.500;8.654;2023-03-03T14:49:28;25.33;;;15.93;;
76377;SDS011;65200;49.500;8.654;2023-03-03T14:52:00;28.45;;;17.15;;
76377;SDS011;65200;49.500;8.654;2023-03-03T14:54:28;26.10;;;15.27;;
76377;SDS011;65200;49.500;8.654;2023-03-03T14:57:04;23.67;;;16.30;;
76377;SDS011;65200;49.500;8.654;2023-03-03T14:59:38;25.17;;;14.50;;
76377;SDS011;65200;49.500;8.654;2023-03-03T15:02:26;27.77;;;15.38;;
76377;SDS011;65200;49.500;8.654;2023-03-03T15:05:17;25.17;;;17.27;;
76377;SDS011;65200;49.500;8.654;2023-03-03T15:07:46;26.35;;;17.42;;
76377;SDS011;65200;49.500;8.654;2023-03-03T15:10:33;25.55;;;17.80;;
76377;SDS011;65200;49.500;8.654;2023-03-03T15:16:02;29.48;;;17.50;;
76377;SDS011;65200;49.500;8.654;2023-03-03T15:18:34;27.17;;;19.02;;
76377;SDS011;65200;49.500;8.654;2023-03-03T15:21:18;25.35;;;15.95;;